KRHV/RHV METAR and TAF weather

Enter ICAO airport designator
Station Type Date Time Source
KRHV METAR 2020/11/27 05:50 UTC NOAA

KRHV 270550Z 00000KT 10SM SKC 06/M02 A3020 RMK LAST


Station Type Date Time Source
KRHV Decoded METAR 2020/11/27 05:50 UTC NOAA

San Jose / Reid / Hillv, CA, United States (KRHV) 37-20N 121-49W
Nov 27, 2020 - 12:50 AM EST / 2020.11.27 0550 UTC
Wind: Calm:0
Visibility: 10 mile(s):0
Sky conditions: clear
Temperature: 42 F (6 C)
Dew Point: 28 F (-2 C)
Relative Humidity: 56%
Pressure (altimeter): 30.2 in. Hg (1022 hPa)
ob: KRHV 270550Z 00000KT 10SM SKC 06/M02 A3020 RMK LAST
cycle: 6

Station Type Date Time Source
KRHV TAF UTC NOAA

Error!

Example: see airport list